createdAt,value
2023-04-11T16:59:27.590Z,14.20
2023-04-11T17:04:33.239Z,13.60
2023-04-11T17:09:39.082Z,13.50
2023-04-11T17:14:47.805Z,13.40
2023-04-11T17:19:53.307Z,13.30
2023-04-11T17:24:58.724Z,13.30
2023-04-11T17:30:08.300Z,13.30
2023-04-11T17:35:14.345Z,13.30
2023-04-11T17:40:19.896Z,13.40
2023-04-11T17:45:28.313Z,13.40
2023-04-11T17:50:33.550Z,13.40
2023-04-11T17:55:39.063Z,13.40
2023-04-11T18:00:55.659Z,13.30
2023-04-11T18:06:01.687Z,13.20
2023-04-11T18:11:07.256Z,13.00
2023-04-11T18:16:16.290Z,12.80
2023-04-11T18:21:22.442Z,12.70
2023-04-11T18:26:27.765Z,12.60
2023-04-11T18:31:36.388Z,12.50
2023-04-11T18:36:41.650Z,12.40
2023-04-11T18:41:47.549Z,12.30
2023-04-11T18:46:57.644Z,12.20
2023-04-11T18:52:04.906Z,12.20
2023-04-11T18:57:12.014Z,12.10
2023-04-11T19:02:21.926Z,12.00
2023-04-11T19:07:27.621Z,12.00
2023-04-11T19:12:33.564Z,12.00
2023-04-11T19:17:41.512Z,11.90
2023-04-11T19:22:46.911Z,11.80
2023-04-11T19:27:52.183Z,11.80
2023-04-11T19:33:01.345Z,11.70
2023-04-11T19:38:07.039Z,11.70
2023-04-11T19:43:12.302Z,11.70
2023-04-11T19:48:20.101Z,11.60
2023-04-11T19:53:25.344Z,11.60
2023-04-11T19:58:30.702Z,11.60
2023-04-11T20:03:38.779Z,11.50
2023-04-11T20:08:44.139Z,11.50
2023-04-11T20:13:49.543Z,11.60
2023-04-11T20:18:57.393Z,11.60
2023-04-11T20:24:02.661Z,11.60
2023-04-11T20:29:08.027Z,11.60
2023-04-11T20:34:15.783Z,11.60
2023-04-11T20:39:21.177Z,11.60
2023-04-11T20:44:27.154Z,11.50
2023-04-11T20:49:35.471Z,11.50
2023-04-11T20:54:41.194Z,11.60
2023-04-11T20:59:46.730Z,11.70
2023-04-11T21:04:55.464Z,11.70
2023-04-11T21:10:01.786Z,11.80
2023-04-11T21:15:08.777Z,11.80
2023-04-11T21:20:20.730Z,11.90
2023-04-11T21:25:26.705Z,11.90
2023-04-11T21:30:32.473Z,11.90
2023-04-11T21:35:40.331Z,11.90
2023-04-11T21:40:45.942Z,12.00
2023-04-11T21:45:51.182Z,11.90
